MST,Max TemperatureF,Mean TemperatureF,Min TemperatureF,Max Dew PointF,MeanDew PointF,Min DewpointF,Max Humidity, Mean Humidity, Min Humidity, Max Sea Level PressureIn, Mean Sea Level PressureIn, Min Sea Level PressureIn, Max VisibilityMiles, Mean VisibilityMiles, Min VisibilityMiles, Max Wind SpeedMPH, Mean Wind SpeedMPH, Max Gust SpeedMPH,PrecipitationIn, CloudCover, Events, WindDirDegrees
2013-10-1,89,74,59,38,32,28,33,22,12,29.94,29.86,29.80,10,10,10,10,6,,0.00,0,,147
2013-10-2,88,74,61,45,39,36,43,29,16,29.99,29.85,29.76,10,10,10,10,6,,0.00,0,,169
2013-10-3,90,76,63,49,40,24,52,30,10,29.83,29.76,29.66,10,10,10,17,8,22,0.00,0,,178
2013-10-4,84,72,61,47,37,18,48,28,13,29.93,29.84,29.77,10,10,10,17,6,24,0.00,0,,268
2013-10-5,80,68,55,22,16,8,25,15,7,30.05,30.01,29.95,10,10,10,15,6,,0.00,0,,308
2013-10-6,87,70,52,21,18,14,25,13,7,30.15,30.02,29.93,10,9,2,18,8,25,0.00,0,,99
2013-10-7,91,77,63,30,24,20,21,14,9,30.04,29.89,29.81,10,10,10,21,11,22,0.00,0,,137
2013-10-8,87,75,63,35,30,25,27,19,12,29.94,29.80,29.72,10,10,10,18,8,26,0.00,0,,194
2013-10-9,86,74,61,44,36,28,34,24,14,29.78,29.71,29.62,10,10,7,25,13,38,0.02,0,,172
2013-10-10,69,62,55,50,45,39,64,50,34,29.98,29.86,29.68,10,10,10,17,10,24,0.00,3,,297
2013-10-11,74,62,49,42,38,33,68,45,25,29.97,29.91,29.86,10,10,10,12,5,,0.00,0,,194
2013-10-12,83,67,51,36,34,32,50,31,16,29.93,29.87,29.79,10,10,10,12,6,,0.00,0,,193
2013-10-13,86,72,58,44,38,32,47,29,16,29.99,29.88,29.81,10,10,10,17,8,26,0.00,0,,209
2013-10-14,80,66,53,44,37,32,61,35,19,29.99,29.92,29.86,10,10,10,10,4,,0.00,0,,162
2013-10-15,81,68,55,42,32,25,46,29,14,29.91,29.87,29.79,10,10,10,15,6,20,0.00,0,,239
2013-10-16,77,63,49,26,20,8,37,21,7,30.02,29.97,29.92,10,10,10,10,7,,0.00,0,,167
2013-10-17,77,62,47,21,16,8,29,19,7,30.04,29.94,29.86,10,10,10,10,7,,0.00,0,,188
2013-10-18,79,64,48,23,21,17,31,21,11,30.03,29.93,29.88,10,10,10,12,6,,0.00,0,,180
2013-10-19,83,66,50,21,17,12,30,17,7,30.00,29.94,29.87,10,10,10,15,7,,0.00,0,,157
2013-10-20,81,64,47,17,15,11,26,15,7,29.93,29.88,29.80,10,10,10,10,6,18,0.00,0,,158
2013-10-21,82,66,50,17,14,10,25,15,7,29.96,29.92,29.87,10,10,10,14,8,,0.00,0,,164
2013-10-22,87,70,52,25,17,10,22,14,6,30.00,29.92,29.84,10,10,8,17,8,17,0.00,0,,118
2013-10-23,89,76,64,28,25,22,23,17,9,29.97,29.86,29.76,10,9,4,18,9,,0.00,0,,132
2013-10-24,89,74,59,29,25,21,28,18,10,29.94,29.86,29.77,10,10,10,15,10,17,0.00,0,,190
2013-10-25,83,68,54,29,26,24,32,22,12,30.02,29.97,29.93,10,10,10,12,7,,0.00,0,,197
2013-10-26,84,68,53,31,26,22,34,22,10,30.07,29.99,29.93,10,10,10,9,6,,0.00,0,,119
2013-10-27,87,76,64,33,26,18,27,18,9,29.92,29.82,29.70,10,10,10,22,12,25,0.00,0,,167
2013-10-28,79,68,56,33,30,24,39,25,13,29.92,29.82,29.76,10,10,9,20,11,30,0.00,0,,173
2013-10-29,79,67,53,39,33,27,51,29,15,29.93,29.84,29.75,10,10,10,23,10,31,0.00,1,,208
2013-10-30,66,56,46,37,32,25,59,42,28,30.01,29.93,29.85,10,10,10,21,6,25,0.00,0,,306
2013-10-31,71,56,41,29,23,14,54,31,11,30.09,30.03,29.96,10,10,10,12,5,,0.00,0,,138